createdAt,value
2022-10-14T00:00:32.802Z,5.22
2022-10-14T00:02:59.371Z,5.10
2022-10-14T00:05:25.941Z,5.20
2022-10-14T00:07:52.673Z,4.65
2022-10-14T00:10:19.365Z,4.85
2022-10-14T00:12:47.331Z,5.72
2022-10-14T00:15:14.173Z,5.25
2022-10-14T00:17:40.701Z,4.95
2022-10-14T00:20:07.827Z,4.45
2022-10-14T00:22:34.691Z,4.68
2022-10-14T00:25:01.280Z,5.45
2022-10-14T00:27:28.028Z,4.43
2022-10-14T00:29:54.689Z,4.93
2022-10-14T00:32:21.214Z,4.97
2022-10-14T00:34:50.814Z,5.25
2022-10-14T00:37:17.690Z,4.85
2022-10-14T00:39:44.330Z,5.47
2022-10-14T00:42:15.398Z,5.07
2022-10-14T00:44:44.975Z,4.78
2022-10-14T00:47:12.356Z,5.20
2022-10-14T00:49:42.063Z,4.53
2022-10-14T00:52:16.469Z,4.80
2022-10-14T00:54:53.392Z,4.93
2022-10-14T00:57:21.582Z,4.20
2022-10-14T00:59:48.787Z,4.30
2022-10-14T01:02:15.482Z,5.55
2022-10-14T01:04:44.403Z,4.82
2022-10-14T01:07:34.561Z,5.63
2022-10-14T01:10:09.697Z,5.38
2022-10-14T01:12:39.134Z,5.30
2022-10-14T01:15:28.982Z,5.57
2022-10-14T01:18:26.562Z,4.85
2022-10-14T01:21:12.925Z,6.13
2022-10-14T01:23:43.697Z,5.50
2022-10-14T01:26:28.973Z,5.22
2022-10-14T01:29:13.829Z,4.70
2022-10-14T01:31:46.348Z,5.25
2022-10-14T01:34:18.360Z,5.50
2022-10-14T01:36:44.860Z,5.15
2022-10-14T01:39:23.957Z,5.38
2022-10-14T01:41:57.442Z,5.72
2022-10-14T01:44:26.934Z,4.95
2022-10-14T01:46:55.799Z,5.10
2022-10-14T01:49:29.317Z,5.82
2022-10-14T01:52:03.358Z,5.40
2022-10-14T01:54:34.225Z,6.03
2022-10-14T01:57:05.410Z,6.40
2022-10-14T02:02:00.650Z,5.47
2022-10-14T02:04:27.270Z,5.50
2022-10-14T02:07:05.076Z,6.85
2022-10-14T02:09:43.860Z,5.75
2022-10-14T02:12:20.291Z,6.28
2022-10-14T02:15:12.486Z,5.88
2022-10-14T02:17:53.935Z,5.82
2022-10-14T02:20:27.885Z,5.45
2022-10-14T02:23:18.881Z,6.05
2022-10-14T02:25:48.170Z,6.85
2022-10-14T02:28:24.662Z,6.65
2022-10-14T02:30:58.135Z,7.32
2022-10-14T02:33:33.130Z,8.35
2022-10-14T02:36:02.471Z,8.05
2022-10-14T02:38:31.583Z,8.68
2022-10-14T02:41:01.969Z,7.75
2022-10-14T02:43:28.644Z,7.47
2022-10-14T02:46:02.123Z,7.35
2022-10-14T02:48:29.006Z,6.65
2022-10-14T02:50:55.630Z,8.02
2022-10-14T02:53:22.165Z,7.63
2022-10-14T02:55:48.742Z,8.88
2022-10-14T02:58:15.404Z,7.60
2022-10-14T03:00:42.009Z,7.95
2022-10-14T03:03:09.503Z,7.75
2022-10-14T03:05:36.232Z,8.23
2022-10-14T03:08:08.640Z,8.45
2022-10-14T03:10:35.761Z,7.22
2022-10-14T03:13:03.324Z,7.93
2022-10-14T03:15:36.485Z,8.85
2022-10-14T03:18:05.388Z,7.32
2022-10-14T03:20:46.667Z,6.88
2022-10-14T03:23:18.435Z,7.90
2022-10-14T03:25:48.433Z,7.93
2022-10-14T03:28:35.310Z,8.18
2022-10-14T03:31:10.884Z,7.88
2022-10-14T03:33:53.196Z,7.40
2022-10-14T03:36:19.853Z,6.10
2022-10-14T03:38:50.975Z,6.72
2022-10-14T03:41:38.665Z,7.57
2022-10-14T03:44:06.882Z,7.20
2022-10-14T03:46:35.546Z,7.25
2022-10-14T03:49:02.811Z,6.88
2022-10-14T03:51:29.790Z,7.15
2022-10-14T03:54:07.242Z,7.68
2022-10-14T03:56:35.129Z,7.68
2022-10-14T03:59:02.763Z,7.57
2022-10-14T04:01:29.421Z,8.35
2022-10-14T04:04:14.927Z,7.13
2022-10-14T04:06:41.665Z,7.25
2022-10-14T04:09:09.489Z,9.05
2022-10-14T04:11:39.069Z,8.52
2022-10-14T04:14:09.599Z,6.80
2022-10-14T04:16:48.843Z,7.78
2022-10-14T04:19:16.975Z,7.25
2022-10-14T04:21:44.048Z,8.40
2022-10-14T04:24:11.357Z,9.70
2022-10-14T04:26:45.442Z,9.43
2022-10-14T04:29:19.449Z,7.95
2022-10-14T04:32:06.239Z,7.00
2022-10-14T04:34:34.780Z,7.43
2022-10-14T04:37:01.701Z,8.27
2022-10-14T04:39:43.667Z,8.32
2022-10-14T04:42:10.928Z,8.90
2022-10-14T04:44:38.240Z,8.70
2022-10-14T04:47:05.599Z,9.20
2022-10-14T04:49:32.475Z,8.40
2022-10-14T04:52:09.157Z,8.30
2022-10-14T04:54:45.113Z,7.53
2022-10-14T04:57:11.729Z,8.48
2022-10-14T04:59:40.058Z,8.93
2022-10-14T05:02:06.735Z,9.73
2022-10-14T05:04:39.544Z,10.25
2022-10-14T05:07:07.796Z,10.27
2022-10-14T05:09:34.637Z,9.25
2022-10-14T05:12:01.724Z,10.27
2022-10-14T05:14:39.869Z,9.57
2022-10-14T05:17:15.081Z,9.48
2022-10-14T05:19:41.842Z,8.52
2022-10-14T05:22:08.993Z,9.07
2022-10-14T05:27:07.413Z,9.02
2022-10-14T05:29:34.838Z,8.60
2022-10-14T05:32:02.257Z,9.00
2022-10-14T05:34:38.833Z,9.48
2022-10-14T05:37:09.015Z,10.45
2022-10-14T05:39:42.681Z,10.27
2022-10-14T05:42:10.720Z,9.43
2022-10-14T05:44:37.503Z,10.23
2022-10-14T05:47:04.565Z,11.00
2022-10-14T05:49:31.384Z,10.65
2022-10-14T05:52:00.734Z,10.18
2022-10-14T05:54:27.562Z,9.60
2022-10-14T05:56:57.173Z,9.43
2022-10-14T05:59:24.785Z,9.57
2022-10-14T06:01:52.038Z,8.07
2022-10-14T06:04:20.430Z,7.60
2022-10-14T06:06:47.163Z,9.98
2022-10-14T06:09:15.448Z,8.23
2022-10-14T06:11:42.159Z,9.98
2022-10-14T06:14:08.972Z,19.73
2022-10-14T06:16:35.703Z,13.85
2022-10-14T06:19:05.240Z,13.10
2022-10-14T06:21:31.871Z,9.70
2022-10-14T06:23:58.555Z,9.82
2022-10-14T06:26:25.176Z,11.57
2022-10-14T06:28:53.478Z,9.35
2022-10-14T06:31:20.833Z,10.70
2022-10-14T06:33:47.474Z,9.80
2022-10-14T06:36:14.094Z,8.82
2022-10-14T06:38:40.669Z,7.35
2022-10-14T06:41:07.321Z,9.52
2022-10-14T06:43:35.233Z,8.52
2022-10-14T06:46:03.288Z,8.65
2022-10-14T06:48:30.398Z,8.07
2022-10-14T06:51:01.414Z,9.25
2022-10-14T06:53:29.125Z,7.40
2022-10-14T06:56:00.721Z,7.75
2022-10-14T06:58:29.447Z,6.93
2022-10-14T07:01:00.485Z,8.88
2022-10-14T07:03:27.694Z,7.50
2022-10-14T07:05:54.347Z,7.93
2022-10-14T07:08:20.878Z,8.55
2022-10-14T07:10:48.382Z,8.80
2022-10-14T07:13:14.931Z,8.88
2022-10-14T07:15:41.515Z,8.02
2022-10-14T07:18:08.176Z,8.77
2022-10-14T07:20:35.089Z,9.88
2022-10-14T07:23:01.671Z,11.18
2022-10-14T07:25:28.347Z,11.93
2022-10-14T07:27:54.923Z,10.32
2022-10-14T07:30:21.558Z,11.50
2022-10-14T07:32:48.224Z,11.00
2022-10-14T07:35:15.062Z,12.27
2022-10-14T07:37:41.656Z,11.35
2022-10-14T07:40:09.798Z,10.77
2022-10-14T07:42:36.378Z,9.85
2022-10-14T07:45:04.297Z,9.07
2022-10-14T07:47:32.828Z,11.38
2022-10-14T07:50:02.528Z,12.90
2022-10-14T07:52:29.120Z,13.52
2022-10-14T07:54:55.666Z,13.80
2022-10-14T07:57:23.422Z,12.98
2022-10-14T07:59:52.294Z,14.50
2022-10-14T08:02:19.373Z,14.05
2022-10-14T08:04:46.788Z,13.88
2022-10-14T08:07:14.545Z,13.75
2022-10-14T08:09:41.348Z,14.88
2022-10-14T08:12:08.467Z,14.57
2022-10-14T08:14:35.085Z,12.32
2022-10-14T08:17:02.597Z,13.25
2022-10-14T08:19:29.196Z,13.60
2022-10-14T08:21:56.133Z,12.10
2022-10-14T08:24:22.750Z,15.07
2022-10-14T08:26:52.010Z,13.13
2022-10-14T08:29:19.321Z,14.60
2022-10-14T08:31:46.431Z,15.32
2022-10-14T08:34:13.100Z,15.45
2022-10-14T08:36:39.819Z,14.70
2022-10-14T08:42:10.106Z,12.90
2022-10-14T08:44:47.356Z,14.85
2022-10-14T08:47:16.797Z,13.57
2022-10-14T08:50:02.122Z,13.77
2022-10-14T08:52:38.018Z,13.18
2022-10-14T08:55:35.493Z,12.63
2022-10-14T08:58:16.411Z,9.57
2022-10-14T09:00:47.405Z,11.25
2022-10-14T09:03:20.448Z,11.80
2022-10-14T09:05:56.043Z,12.55
2022-10-14T09:08:30.710Z,11.18
2022-10-14T09:10:58.095Z,11.57
2022-10-14T09:13:40.985Z,12.77
2022-10-14T09:16:22.978Z,12.32
2022-10-14T09:18:56.620Z,10.98
2022-10-14T09:21:52.090Z,10.32
2022-10-14T09:24:30.514Z,12.35
2022-10-14T09:27:03.045Z,12.50
2022-10-14T09:29:31.962Z,12.35
2022-10-14T09:32:05.705Z,10.65
2022-10-14T09:34:51.783Z,9.93
2022-10-14T09:37:24.305Z,12.40
2022-10-14T09:39:53.248Z,11.52
2022-10-14T09:42:28.061Z,11.23
2022-10-14T09:45:09.818Z,9.85
2022-10-14T09:48:03.932Z,11.43
2022-10-14T09:50:39.934Z,12.43
2022-10-14T09:53:32.514Z,11.15
2022-10-14T09:56:02.729Z,11.52
2022-10-14T09:58:35.633Z,11.38
2022-10-14T10:01:02.742Z,12.52
2022-10-14T10:03:35.450Z,10.68
2022-10-14T10:06:13.733Z,11.60
2022-10-14T10:08:55.451Z,11.95
2022-10-14T10:11:39.095Z,11.13
2022-10-14T10:14:25.284Z,10.52
2022-10-14T10:17:12.617Z,12.00
2022-10-14T10:19:44.944Z,12.77
2022-10-14T10:22:34.063Z,11.38
2022-10-14T10:25:00.610Z,10.70
2022-10-14T10:27:36.118Z,10.88
2022-10-14T10:30:32.275Z,10.07
2022-10-14T10:33:07.833Z,10.18
2022-10-14T10:36:08.580Z,11.82
2022-10-14T10:38:45.348Z,9.75
2022-10-14T10:41:24.244Z,10.73
2022-10-14T10:44:02.976Z,10.20
2022-10-14T10:46:45.182Z,10.07
2022-10-14T10:49:30.190Z,10.10
2022-10-14T10:52:23.708Z,9.45
2022-10-14T10:55:12.541Z,10.50
2022-10-14T10:57:46.105Z,9.38
2022-10-14T11:00:21.094Z,8.32
2022-10-14T11:02:55.406Z,8.55
2022-10-14T11:05:43.936Z,8.90
2022-10-14T11:09:06.479Z,8.70
2022-10-14T11:12:06.453Z,7.53
2022-10-14T11:14:46.319Z,8.70
2022-10-14T11:17:31.737Z,8.57
2022-10-14T11:20:22.827Z,9.02
2022-10-14T11:23:10.718Z,10.27
2022-10-14T11:25:49.393Z,8.45
2022-10-14T11:28:28.223Z,8.80
2022-10-14T11:31:19.300Z,8.38
2022-10-14T11:36:33.708Z,9.73
2022-10-14T11:39:14.671Z,9.02
2022-10-14T11:42:03.831Z,8.40
2022-10-14T11:44:37.878Z,9.35
2022-10-14T11:47:12.440Z,8.88
2022-10-14T11:49:55.723Z,9.10
2022-10-14T11:52:28.378Z,8.82
2022-10-14T11:55:02.929Z,8.73
2022-10-14T11:57:41.797Z,7.88
2022-10-14T12:00:20.977Z,8.77
2022-10-14T12:03:13.748Z,10.10
2022-10-14T12:05:59.409Z,9.48
2022-10-14T12:08:55.234Z,8.60
2022-10-14T12:11:30.819Z,8.85
2022-10-14T12:14:13.313Z,9.20
2022-10-14T12:16:43.066Z,8.73
2022-10-14T12:19:15.133Z,9.05
2022-10-14T12:21:56.451Z,9.88
2022-10-14T12:24:30.679Z,9.02
2022-10-14T12:27:00.751Z,9.55
2022-10-14T12:29:43.332Z,8.90
2022-10-14T12:32:32.734Z,9.57
2022-10-14T12:35:22.864Z,8.13
2022-10-14T12:37:50.667Z,9.85
2022-10-14T12:40:23.899Z,9.45
2022-10-14T12:43:00.091Z,9.43
2022-10-14T12:45:29.062Z,9.70
2022-10-14T12:48:07.519Z,9.80
2022-10-14T12:50:38.884Z,10.30
2022-10-14T12:53:16.147Z,9.35
2022-10-14T12:56:09.372Z,8.23
2022-10-14T12:58:51.579Z,9.00
2022-10-14T13:01:23.733Z,8.30
2022-10-14T13:06:36.775Z,7.03
2022-10-14T13:09:12.461Z,5.45
2022-10-14T13:11:39.837Z,7.60
2022-10-14T13:14:54.447Z,7.78
2022-10-14T13:17:45.851Z,5.72
2022-10-14T13:20:34.128Z,7.13
2022-10-14T13:23:22.365Z,5.50
2022-10-14T13:25:52.443Z,6.43
2022-10-14T13:28:31.092Z,5.50
2022-10-14T13:31:05.075Z,5.20
2022-10-14T13:33:38.381Z,4.50
2022-10-14T13:36:13.978Z,4.88
2022-10-14T13:38:46.152Z,4.35
2022-10-14T13:41:29.931Z,4.82
2022-10-14T13:43:59.861Z,3.78
2022-10-14T13:46:31.345Z,4.47
2022-10-14T13:49:02.277Z,5.05
2022-10-14T13:51:42.395Z,4.72
2022-10-14T13:54:15.084Z,4.22
2022-10-14T13:56:42.042Z,5.03
2022-10-14T13:59:43.152Z,4.10
2022-10-14T14:02:29.818Z,4.82
2022-10-14T14:04:58.385Z,5.70
2022-10-14T14:10:23.919Z,5.57
2022-10-14T14:12:51.028Z,6.20
2022-10-14T14:15:26.571Z,5.53
2022-10-14T14:17:53.765Z,6.13
2022-10-14T14:20:28.327Z,6.35
2022-10-14T14:22:58.791Z,6.88
2022-10-14T14:25:46.530Z,6.78
2022-10-14T14:28:18.428Z,7.35
2022-10-14T14:30:56.214Z,6.63
2022-10-14T14:33:32.271Z,7.55
2022-10-14T14:36:05.672Z,7.00
2022-10-14T14:38:35.482Z,6.68
2022-10-14T14:41:14.582Z,8.23
2022-10-14T14:43:47.359Z,8.75
2022-10-14T14:46:31.122Z,8.27
2022-10-14T14:49:02.166Z,7.93
2022-10-14T14:51:35.260Z,7.72
2022-10-14T14:54:02.886Z,8.23
2022-10-14T14:56:39.082Z,8.02
2022-10-14T14:59:28.413Z,8.00
2022-10-14T15:04:33.774Z,8.32
2022-10-14T15:09:44.843Z,7.97
2022-10-14T15:12:27.000Z,8.85
2022-10-14T15:14:57.787Z,9.73
2022-10-14T15:17:36.057Z,10.43
2022-10-14T15:20:05.798Z,9.65
2022-10-14T15:22:43.651Z,8.48
2022-10-14T15:25:31.460Z,8.70
2022-10-14T15:27:59.963Z,8.13
2022-10-14T15:30:40.638Z,9.35
2022-10-14T15:33:22.229Z,9.18
2022-10-14T15:36:04.107Z,8.85
2022-10-14T15:40:58.349Z,8.98
2022-10-14T15:43:27.196Z,9.07
2022-10-14T15:46:18.023Z,8.98
2022-10-14T15:48:52.362Z,7.43
2022-10-14T15:51:21.466Z,7.82
2022-10-14T15:53:49.059Z,9.35
2022-10-14T15:56:17.037Z,8.85
2022-10-14T15:58:43.640Z,9.95
2022-10-14T16:01:16.916Z,11.27
2022-10-14T16:03:44.223Z,10.40
2022-10-14T16:06:11.998Z,9.50
2022-10-14T16:08:39.116Z,10.13
2022-10-14T16:11:20.723Z,9.50
2022-10-14T16:13:47.371Z,9.35
2022-10-14T16:16:19.273Z,9.38
2022-10-14T16:18:45.879Z,8.57
2022-10-14T16:21:15.997Z,8.02
2022-10-14T16:23:43.680Z,8.18
2022-10-14T16:26:10.829Z,9.00
2022-10-14T16:28:37.651Z,8.90
2022-10-14T16:31:04.323Z,8.50
2022-10-14T16:33:31.041Z,10.40
2022-10-14T16:35:57.632Z,11.65
2022-10-14T16:38:24.319Z,10.00
2022-10-14T16:40:59.087Z,9.30
2022-10-14T16:43:26.902Z,8.60
2022-10-14T16:45:57.013Z,8.90
2022-10-14T16:48:23.534Z,9.13
2022-10-14T16:50:51.742Z,6.82
2022-10-14T16:53:37.413Z,7.95
2022-10-14T16:56:25.030Z,7.88
2022-10-14T16:58:51.582Z,7.97
2022-10-14T17:01:18.566Z,8.93
2022-10-14T17:03:45.158Z,9.32
2022-10-14T17:06:11.942Z,9.13
2022-10-14T17:08:42.682Z,8.23
2022-10-14T17:11:10.047Z,8.15
2022-10-14T17:13:37.052Z,15.85
2022-10-14T17:16:05.722Z,13.57
2022-10-14T17:18:34.910Z,11.68
2022-10-14T17:21:11.991Z,10.48
2022-10-14T17:23:42.057Z,9.48
2022-10-14T17:26:14.407Z,8.98
2022-10-14T17:28:42.405Z,9.32
2022-10-14T17:31:12.106Z,8.98
2022-10-14T17:33:40.070Z,8.60
2022-10-14T17:36:07.818Z,9.32
2022-10-14T17:38:35.499Z,9.45
2022-10-14T17:41:03.832Z,9.15
2022-10-14T17:43:30.968Z,7.72
2022-10-14T17:46:08.960Z,8.40
2022-10-14T17:48:35.658Z,7.97
2022-10-14T17:51:02.927Z,7.78
2022-10-14T17:53:29.738Z,9.13
2022-10-14T17:55:59.162Z,8.63
2022-10-14T17:58:25.871Z,8.90
2022-10-14T18:00:52.417Z,8.90
2022-10-14T18:03:19.067Z,9.32
2022-10-14T18:05:48.758Z,8.45
2022-10-14T18:08:15.734Z,10.02
2022-10-14T18:10:42.358Z,9.32
2022-10-14T18:13:09.008Z,9.40
2022-10-14T18:15:36.345Z,9.90
2022-10-14T18:18:02.992Z,8.95
2022-10-14T18:20:29.601Z,8.10
2022-10-14T18:22:56.442Z,9.15
2022-10-14T18:25:23.452Z,9.82
2022-10-14T18:27:49.996Z,9.63
2022-10-14T18:30:16.588Z,9.27
2022-10-14T18:32:43.164Z,9.10
2022-10-14T18:35:09.952Z,8.82
2022-10-14T18:37:36.484Z,9.38
2022-10-14T18:40:04.191Z,8.90
2022-10-14T18:42:30.804Z,7.70
2022-10-14T18:44:59.107Z,8.68
2022-10-14T18:47:25.788Z,9.23
2022-10-14T18:49:52.686Z,9.25
2022-10-14T18:52:20.929Z,12.20
2022-10-14T18:54:47.874Z,11.40
2022-10-14T18:57:14.981Z,11.65
2022-10-14T18:59:41.909Z,14.15
2022-10-14T19:02:12.736Z,13.60
2022-10-14T19:04:39.370Z,12.85
2022-10-14T19:07:07.175Z,12.18
2022-10-14T19:09:34.109Z,11.30
2022-10-14T19:12:21.204Z,10.23
2022-10-14T19:14:47.969Z,10.13
2022-10-14T19:19:45.980Z,11.13
2022-10-14T19:22:12.586Z,8.82
2022-10-14T19:24:39.139Z,9.13
2022-10-14T19:27:05.848Z,7.95
2022-10-14T19:29:32.503Z,8.63
2022-10-14T19:31:59.140Z,7.80
2022-10-14T19:34:27.330Z,7.25
2022-10-14T19:36:54.178Z,8.23
2022-10-14T19:39:20.751Z,7.30
2022-10-14T19:41:47.511Z,7.18
2022-10-14T19:44:16.082Z,7.50
2022-10-14T19:46:43.625Z,7.28
2022-10-14T19:49:12.986Z,8.88
2022-10-14T19:51:39.934Z,7.70
2022-10-14T19:54:06.833Z,7.07
2022-10-14T19:56:33.810Z,6.93
2022-10-14T19:59:01.663Z,6.85
2022-10-14T20:01:30.547Z,7.97
2022-10-14T20:04:00.177Z,7.57
2022-10-14T20:06:28.203Z,7.65
2022-10-14T20:08:54.823Z,6.80
2022-10-14T20:11:23.395Z,8.23
2022-10-14T20:13:50.375Z,7.13
2022-10-14T20:16:17.539Z,7.18
2022-10-14T20:18:44.102Z,7.13
2022-10-14T20:21:13.363Z,8.20
2022-10-14T20:23:40.656Z,7.90
2022-10-14T20:26:10.663Z,7.22
2022-10-14T20:28:38.232Z,7.13
2022-10-14T20:31:09.545Z,7.68
2022-10-14T20:33:36.613Z,7.55
2022-10-14T20:36:14.697Z,7.60
2022-10-14T20:38:42.202Z,7.63
2022-10-14T20:41:23.148Z,6.60
2022-10-14T20:43:50.182Z,6.80
2022-10-14T20:46:17.355Z,6.72
2022-10-14T20:48:44.747Z,6.80
2022-10-14T20:51:15.167Z,5.78
2022-10-14T20:53:42.221Z,5.72
2022-10-14T20:56:11.016Z,6.75
2022-10-14T20:58:37.785Z,6.30
2022-10-14T21:01:22.824Z,5.75
2022-10-14T21:03:49.629Z,6.20
2022-10-14T21:06:22.977Z,5.82
2022-10-14T21:08:51.750Z,5.80
2022-10-14T21:11:22.087Z,5.47
2022-10-14T21:13:51.186Z,5.50
2022-10-14T21:16:27.035Z,5.30
2022-10-14T21:19:06.426Z,5.22
2022-10-14T21:21:36.046Z,4.63
2022-10-14T21:24:02.994Z,5.13
2022-10-14T21:26:30.205Z,5.22
2022-10-14T21:28:56.933Z,5.85
2022-10-14T21:31:23.726Z,5.70
2022-10-14T21:34:05.828Z,6.13
2022-10-14T21:36:34.802Z,6.20
2022-10-14T21:39:08.911Z,5.63
2022-10-14T21:41:36.502Z,6.05
2022-10-14T21:44:04.339Z,5.70
2022-10-14T21:46:31.194Z,5.68
2022-10-14T21:48:58.217Z,5.70
2022-10-14T21:51:27.145Z,5.82
2022-10-14T21:53:53.678Z,5.15
2022-10-14T21:56:20.553Z,4.97
2022-10-14T21:58:47.397Z,4.28
2022-10-14T22:01:13.998Z,6.78
2022-10-14T22:03:41.494Z,5.97
2022-10-14T22:06:10.921Z,5.03
2022-10-14T22:08:43.386Z,5.18
2022-10-14T22:11:37.523Z,4.70
2022-10-14T22:14:06.818Z,4.20
2022-10-14T22:16:35.083Z,4.65
2022-10-14T22:19:03.845Z,5.20
2022-10-14T22:21:32.300Z,5.15
2022-10-14T22:23:59.665Z,5.50
2022-10-14T22:26:28.167Z,5.25
2022-10-14T22:29:06.134Z,5.40
2022-10-14T22:31:34.562Z,6.18
2022-10-14T22:34:03.750Z,5.75
2022-10-14T22:36:31.077Z,5.60
2022-10-14T22:38:59.559Z,5.55
2022-10-14T22:41:30.964Z,5.43
2022-10-14T22:44:00.725Z,5.00
2022-10-14T22:46:32.558Z,4.97
2022-10-14T22:49:00.709Z,4.70
2022-10-14T22:51:33.066Z,4.93
2022-10-14T22:53:59.890Z,5.13
2022-10-14T22:56:29.654Z,4.70
2022-10-14T22:58:58.577Z,5.22
2022-10-14T23:01:27.822Z,5.13
2022-10-14T23:03:56.746Z,5.70
2022-10-14T23:06:23.969Z,5.50
2022-10-14T23:08:50.569Z,4.80
2022-10-14T23:11:19.868Z,5.25
2022-10-14T23:13:47.344Z,5.20
2022-10-14T23:16:25.507Z,4.25
2022-10-14T23:18:53.038Z,4.70
2022-10-14T23:21:22.775Z,4.55
2022-10-14T23:23:50.428Z,4.20
2022-10-14T23:26:21.313Z,4.20
2022-10-14T23:28:49.733Z,4.55
2022-10-14T23:31:18.764Z,4.53
2022-10-14T23:33:45.945Z,3.83
2022-10-14T23:36:14.014Z,4.57
2022-10-14T23:38:40.914Z,4.15
2022-10-14T23:41:10.138Z,3.90
2022-10-14T23:43:37.089Z,3.30
2022-10-14T23:46:03.991Z,3.90
2022-10-14T23:48:30.546Z,3.53
2022-10-14T23:50:57.276Z,4.28
2022-10-14T23:53:26.330Z,3.70
2022-10-14T23:55:53.494Z,3.45
2022-10-14T23:58:20.169Z,4.22
